Time;durP1;ratioP1;P1;durP2;ratioP2;P2;SDS_P1;SDS_P2;PMS_P1;PMS_P2;Temp;Humidity;BMP_temperature;BMP_pressure;BME280_temperature;BME280_humidity;BME280_pressure;Samples;Min_cycle;Max_cycle;Signal;HPM_P1;HPM_P2
2023/08/13 00:01:28;;;;;;;12.70;4.47;;;16.30;99.90;;;;;;5081344;28;20093;-74
2023/08/13 00:03:54;;;;;;;9.60;4.10;;;16.30;99.90;;;;;;5080617;28;20061;-74
2023/08/13 00:06:21;;;;;;;10.00;3.55;;;16.30;99.90;;;;;;5079285;28;20546;-74
2023/08/13 00:08:47;;;;;;;11.38;4.00;;;16.40;99.90;;;;;;5081234;28;20115;-74
2023/08/13 00:11:13;;;;;;;11.30;4.40;;;16.40;99.90;;;;;;5080322;28;20103;-74
2023/08/13 00:13:40;;;;;;;12.50;3.78;;;16.40;99.90;;;;;;5065728;28;20406;-74
2023/08/13 00:16:10;;;;;;;11.93;4.10;;;16.40;99.90;;;;;;5081786;28;20482;-74
2023/08/13 00:18:35;;;;;;;12.38;3.72;;;16.40;99.90;;;;;;5079977;28;20039;-74
2023/08/13 00:21:01;;;;;;;10.65;3.28;;;16.50;99.90;;;;;;5064019;28;20107;-74
2023/08/13 00:23:27;;;;;;;10.57;4.13;;;16.50;99.90;;;;;;5081807;28;20490;-74
2023/08/13 00:25:53;;;;;;;13.60;3.80;;;16.50;99.90;;;;;;5074977;28;20079;-74
2023/08/13 00:28:18;;;;;;;13.15;3.92;;;16.50;99.90;;;;;;5063968;28;20104;-74
2023/08/13 00:30:50;;;;;;;11.60;3.25;;;16.50;99.90;;;;;;5079815;28;20073;-75
2023/08/13 00:33:16;;;;;;;11.88;3.75;;;16.50;99.90;;;;;;5093946;28;20059;-74
2023/08/13 00:35:42;;;;;;;11.13;3.40;;;16.50;99.90;;;;;;5081884;28;20086;-74
2023/08/13 00:38:10;;;;;;;11.10;3.53;;;16.50;99.90;;;;;;5082612;28;20112;-75
2023/08/13 00:40:36;;;;;;;11.40;3.88;;;16.50;99.90;;;;;;5064790;28;20042;-74
2023/08/13 00:43:02;;;;;;;12.13;3.72;;;16.50;99.90;;;;;;5080708;28;20051;-75
2023/08/13 00:45:30;;;;;;;10.65;3.85;;;16.50;99.90;;;;;;5080836;28;20243;-75
2023/08/13 00:47:56;;;;;;;16.25;4.45;;;16.50;99.90;;;;;;5058784;28;20036;-74
2023/08/13 00:50:22;;;;;;;15.07;5.50;;;16.50;99.90;;;;;;5065042;28;20548;-75
2023/08/13 00:52:48;;;;;;;11.32;3.90;;;16.40;99.90;;;;;;5062133;28;20036;-76
2023/08/13 00:55:14;;;;;;;10.88;3.85;;;16.30;99.90;;;;;;5079030;28;20047;-75
2023/08/13 00:57:40;;;;;;;11.23;4.07;;;16.40;99.90;;;;;;5073414;28;20050;-75
2023/08/13 01:00:08;;;;;;;8.73;4.10;;;16.30;99.90;;;;;;5063932;28;20119;-75
2023/08/13 01:02:34;;;;;;;11.95;3.92;;;16.30;99.90;;;;;;5079437;28;20056;-75
2023/08/13 01:05:00;;;;;;;11.23;4.68;;;16.30;99.90;;;;;;5061114;28;20117;-75
2023/08/13 01:07:48;;;;;;;13.18;4.72;;;16.20;99.90;;;;;;5079684;28;20058;-75
2023/08/13 01:10:25;;;;;;;12.02;4.15;;;16.20;99.90;;;;;;5077389;28;20051;-75
2023/08/13 01:12:54;;;;;;;13.85;5.50;;;16.20;99.90;;;;;;5060906;28;20075;-74
2023/08/13 01:15:29;;;;;;;13.18;4.60;;;16.20;99.90;;;;;;5078290;28;20040;-74
2023/08/13 01:17:58;;;;;;;13.27;4.30;;;16.20;99.90;;;;;;5056149;28;20135;-75
2023/08/13 01:20:29;;;;;;;11.85;4.15;;;16.10;99.90;;;;;;5078520;28;20035;-75
2023/08/13 01:22:55;;;;;;;15.18;4.32;;;16.10;99.90;;;;;;5076927;28;20083;-74
2023/08/13 01:25:25;;;;;;;12.05;3.60;;;16.10;99.90;;;;;;5078436;28;20055;-75
2023/08/13 01:27:56;;;;;;;13.45;4.32;;;16.10;99.90;;;;;;5061109;28;20051;-74
2023/08/13 01:30:45;;;;;;;13.30;3.88;;;16.10;99.90;;;;;;5060644;28;20101;-75
2023/08/13 01:33:28;;;;;;;12.40;4.22;;;16.10;99.90;;;;;;5078479;28;20044;-75
2023/08/13 01:36:01;;;;;;;10.63;4.05;;;16.00;99.90;;;;;;5077934;28;20036;-75
2023/08/13 01:38:27;;;;;;;13.93;4.20;;;16.00;99.90;;;;;;5073935;28;20044;-75
2023/08/13 01:40:53;;;;;;;13.43;4.78;;;16.00;99.90;;;;;;5065202;28;20040;-74
2023/08/13 01:43:19;;;;;;;10.95;3.80;;;16.00;99.90;;;;;;5080015;28;20108;-75
2023/08/13 01:45:44;;;;;;;14.93;4.40;;;16.00;99.90;;;;;;5077727;28;20484;-74
2023/08/13 01:48:10;;;;;;;12.57;4.30;;;16.00;99.90;;;;;;5063833;28;20051;-75
2023/08/13 01:50:40;;;;;;;14.07;3.92;;;16.00;99.90;;;;;;5079391;28;20516;-74
2023/08/13 01:53:06;;;;;;;12.82;4.45;;;16.10;99.90;;;;;;5097877;28;20119;-75
2023/08/13 01:55:31;;;;;;;11.70;4.05;;;16.10;99.90;;;;;;5079545;28;20542;-75
2023/08/13 01:57:57;;;;;;;11.52;3.75;;;16.10;99.90;;;;;;5062126;28;20044;-74
2023/08/13 02:00:23;;;;;;;14.30;3.83;;;16.00;99.90;;;;;;5083675;28;20044;-75
2023/08/13 02:02:49;;;;;;;12.15;3.90;;;16.10;99.90;;;;;;5081332;28;20071;-75
2023/08/13 02:05:15;;;;;;;10.80;4.00;;;16.10;99.90;;;;;;5069500;28;20121;-74
2023/08/13 02:07:40;;;;;;;12.85;3.97;;;16.00;99.90;;;;;;5084113;28;20507;-74
2023/08/13 02:10:06;;;;;;;11.43;3.70;;;16.10;99.90;;;;;;5082806;28;20158;-75
2023/08/13 02:12:32;;;;;;;13.05;3.78;;;16.00;99.90;;;;;;5067016;28;20104;-74
2023/08/13 02:14:58;;;;;;;11.50;4.10;;;16.10;99.90;;;;;;5084824;28;20043;-75
2023/08/13 02:17:24;;;;;;;13.57;4.20;;;16.00;99.90;;;;;;5069407;28;20055;-75
2023/08/13 02:19:50;;;;;;;13.68;4.00;;;16.00;99.90;;;;;;5083004;28;20036;-74
2023/08/13 02:22:16;;;;;;;12.98;4.43;;;16.00;99.90;;;;;;5082996;28;20047;-74
2023/08/13 02:24:41;;;;;;;13.63;4.68;;;16.00;99.90;;;;;;5077981;28;20119;-73
2023/08/13 02:27:13;;;;;;;15.38;5.05;;;15.90;99.90;;;;;;5085497;28;20494;-74
2023/08/13 02:29:39;;;;;;;14.82;4.72;;;15.90;99.90;;;;;;5082690;28;20048;-74
2023/08/13 02:32:04;;;;;;;15.77;4.82;;;15.90;99.90;;;;;;5068270;28;20035;-74
2023/08/13 02:34:43;;;;;;;13.57;4.30;;;15.90;99.90;;;;;;5067994;28;20048;-74
2023/08/13 02:37:08;;;;;;;12.07;4.47;;;15.90;99.90;;;;;;5082433;28;21339;-74
2023/08/13 02:39:34;;;;;;;17.35;4.97;;;15.90;99.90;;;;;;5067030;28;20044;-74
2023/08/13 02:42:00;;;;;;;13.63;4.55;;;15.90;99.90;;;;;;5083214;28;20052;-74
2023/08/13 02:44:26;;;;;;;15.70;5.13;;;15.80;99.90;;;;;;5068256;28;20102;-74
2023/08/13 02:46:52;;;;;;;13.00;4.40;;;15.80;99.90;;;;;;5075842;28;20047;-74
2023/08/13 02:49:18;;;;;;;12.52;5.38;;;15.80;99.90;;;;;;5078511;28;20036;-74
2023/08/13 02:51:44;;;;;;;13.60;4.50;;;15.80;99.90;;;;;;5083123;28;20044;-74
2023/08/13 02:54:10;;;;;;;15.30;5.10;;;15.80;99.90;;;;;;5064116;28;20052;-74
2023/08/13 02:56:37;;;;;;;12.80;4.75;;;15.80;99.90;;;;;;5066723;28;20036;-74
2023/08/13 02:59:05;;;;;;;18.70;5.93;;;15.80;99.90;;;;;;5065109;28;20044;-74
2023/08/13 03:01:31;;;;;;;14.73;4.47;;;15.70;99.90;;;;;;5084698;28;20316;-74
2023/08/13 03:04:00;;;;;;;14.20;5.45;;;15.70;99.90;;;;;;5081229;28;20047;-74
2023/08/13 03:06:26;;;;;;;13.90;4.90;;;15.70;99.90;;;;;;5083831;28;20446;-74
2023/08/13 03:08:52;;;;;;;13.43;4.95;;;15.70;99.90;;;;;;5080395;28;20039;-74
2023/08/13 03:11:17;;;;;;;13.75;4.78;;;15.70;99.90;;;;;;5081890;28;20131;-74
2023/08/13 03:13:44;;;;;;;17.23;4.97;;;15.70;99.90;;;;;;5082408;28;20071;-74
2023/08/13 03:16:10;;;;;;;13.50;4.72;;;15.70;99.90;;;;;;5066381;28;20040;-74
2023/08/13 03:18:36;;;;;;;13.25;5.50;;;15.60;99.90;;;;;;5067247;28;20113;-75
2023/08/13 03:21:01;;;;;;;14.60;5.65;;;15.60;99.90;;;;;;5081807;28;20120;-74
2023/08/13 03:23:29;;;;;;;16.35;5.20;;;15.60;99.90;;;;;;5080225;28;20223;-74
2023/08/13 03:25:55;;;;;;;13.10;4.75;;;15.60;99.90;;;;;;5080604;28;20043;-74
2023/08/13 03:28:21;;;;;;;12.52;4.85;;;15.60;99.90;;;;;;5076855;28;20549;-73
2023/08/13 03:30:46;;;;;;;11.93;4.97;;;15.60;99.90;;;;;;5081980;28;20040;-74
2023/08/13 03:33:12;;;;;;;18.20;5.60;;;15.50;99.90;;;;;;5081183;28;20041;-74
2023/08/13 03:35:41;;;;;;;15.93;5.47;;;15.50;99.90;;;;;;5082932;28;20032;-74
2023/08/13 03:38:10;;;;;;;15.25;4.97;;;15.50;99.90;;;;;;5062910;28;20047;-74
2023/08/13 03:40:43;;;;;;;15.65;5.90;;;15.50;99.90;;;;;;5083347;28;20060;-74
2023/08/13 03:43:09;;;;;;;14.27;5.70;;;15.50;99.90;;;;;;5067904;28;20051;-74
2023/08/13 03:45:34;;;;;;;12.75;5.93;;;15.50;99.90;;;;;;5082902;28;20040;-74
2023/08/13 03:48:00;;;;;;;13.15;5.07;;;15.50;99.90;;;;;;5066370;28;20068;-74
2023/08/13 03:50:26;;;;;;;16.73;5.47;;;15.50;99.90;;;;;;5081307;28;20040;-74
2023/08/13 03:52:55;;;;;;;14.27;5.72;;;15.50;99.90;;;;;;5066058;28;20044;-74
2023/08/13 03:55:21;;;;;;;18.50;5.82;;;15.50;99.90;;;;;;5066413;28;20085;-74
2023/08/13 03:57:46;;;;;;;16.05;5.65;;;15.40;99.90;;;;;;5081908;28;20579;-74
2023/08/13 04:00:12;;;;;;;16.60;5.38;;;15.50;99.90;;;;;;5081676;28;20156;-74
2023/08/13 04:02:45;;;;;;;13.05;5.43;;;15.50;99.90;;;;;;5073518;28;20048;-74
2023/08/13 04:05:11;;;;;;;12.93;5.47;;;15.50;99.90;;;;;;5079979;28;20101;-74
2023/08/13 04:07:40;;;;;;;13.88;5.78;;;15.50;99.90;;;;;;5080264;28;20032;-74
2023/08/13 04:10:06;;;;;;;20.65;6.40;;;15.50;99.90;;;;;;5065312;28;20094;-74
2023/08/13 04:12:32;;;;;;;16.65;7.20;;;15.50;99.90;;;;;;5082003;28;20042;-74
2023/08/13 04:14:57;;;;;;;14.02;7.18;;;15.50;99.90;;;;;;5082308;28;20043;-74
2023/08/13 04:17:23;;;;;;;13.05;6.40;;;15.50;99.90;;;;;;5061622;28;20058;-76
2023/08/13 04:19:49;;;;;;;13.75;6.03;;;15.50;99.90;;;;;;5082681;28;20459;-74
2023/08/13 04:22:15;;;;;;;18.40;6.45;;;15.60;99.90;;;;;;5077453;28;20118;-74
2023/08/13 04:24:41;;;;;;;13.77;5.93;;;15.60;99.90;;;;;;5082727;28;20048;-74
2023/08/13 04:27:10;;;;;;;16.42;6.15;;;15.60;99.90;;;;;;5062117;28;20048;-74
2023/08/13 04:29:35;;;;;;;14.43;6.10;;;15.60;99.90;;;;;;5081083;28;20043;-74
2023/08/13 04:32:01;;;;;;;13.80;5.50;;;15.60;99.90;;;;;;5079448;28;20595;-74
2023/08/13 04:34:27;;;;;;;11.20;5.38;;;15.70;99.90;;;;;;5082547;28;20032;-74
2023/08/13 04:36:53;;;;;;;16.67;6.18;;;15.70;99.90;;;;;;5061941;28;20044;-74
2023/08/13 04:39:18;;;;;;;15.93;5.78;;;15.70;99.90;;;;;;5082200;28;20052;-74
2023/08/13 04:41:44;;;;;;;15.93;6.13;;;15.70;99.90;;;;;;5079625;28;20046;-75
2023/08/13 04:44:10;;;;;;;11.55;5.40;;;15.80;99.90;;;;;;5064514;28;20054;-75
2023/08/13 04:46:36;;;;;;;13.43;5.93;;;15.80;99.90;;;;;;5082173;28;20062;-75
2023/08/13 04:49:02;;;;;;;13.95;5.40;;;15.80;99.90;;;;;;5061396;28;20048;-75
2023/08/13 04:51:34;;;;;;;12.32;5.43;;;15.90;99.90;;;;;;5081735;28;20108;-75
2023/08/13 04:53:59;;;;;;;12.80;5.35;;;15.80;99.90;;;;;;5077951;28;20044;-75
2023/08/13 04:56:25;;;;;;;13.57;5.15;;;15.90;99.90;;;;;;5062015;28;20047;-75
2023/08/13 04:58:51;;;;;;;13.52;6.00;;;15.90;99.90;;;;;;5082022;28;20036;-75
2023/08/13 05:01:17;;;;;;;13.18;5.25;;;15.90;99.90;;;;;;5071243;28;20048;-75
2023/08/13 05:03:44;;;;;;;13.68;5.80;;;15.90;99.90;;;;;;5062213;28;20052;-75
2023/08/13 05:06:15;;;;;;;13.32;5.60;;;16.00;99.90;;;;;;5064577;28;20045;-75
2023/08/13 05:08:45;;;;;;;17.38;5.90;;;16.00;99.90;;;;;;5044667;28;20036;-75
2023/08/13 05:11:10;;;;;;;12.88;5.15;;;16.00;99.90;;;;;;5059053;28;20442;-75
2023/08/13 05:13:39;;;;;;;12.85;5.30;;;16.00;99.90;;;;;;5062611;28;20048;-75
2023/08/13 05:16:05;;;;;;;15.05;5.43;;;16.00;99.90;;;;;;5063223;28;20415;-75
2023/08/13 05:18:30;;;;;;;12.35;5.32;;;16.10;99.90;;;;;;5046280;28;20040;-75
2023/08/13 05:20:56;;;;;;;14.82;5.50;;;16.10;99.90;;;;;;5041232;28;20059;-75
2023/08/13 05:23:24;;;;;;;16.92;5.95;;;16.10;99.90;;;;;;5065166;28;20411;-75
2023/08/13 05:25:50;;;;;;;13.82;6.20;;;16.10;99.90;;;;;;5057280;28;20044;-75
2023/08/13 05:28:16;;;;;;;14.63;5.72;;;16.10;99.90;;;;;;5067494;28;20560;-75
2023/08/13 05:30:41;;;;;;;14.32;5.63;;;16.10;99.90;;;;;;5048370;28;20032;-75
2023/08/13 05:33:10;;;;;;;11.70;5.65;;;16.10;99.90;;;;;;5046323;28;20078;-75
2023/08/13 05:35:36;;;;;;;15.25;6.00;;;16.20;99.90;;;;;;5064391;28;20047;-75
2023/08/13 05:38:02;;;;;;;13.95;6.28;;;16.20;99.90;;;;;;5074914;28;20044;-75
2023/08/13 05:40:30;;;;;;;13.20;5.40;;;16.30;99.90;;;;;;5064714;28;20116;-75
2023/08/13 05:42:56;;;;;;;10.82;5.32;;;16.30;99.90;;;;;;5045907;28;20055;-75
2023/08/13 05:45:22;;;;;;;14.23;6.00;;;16.40;99.90;;;;;;5065265;28;20387;-75
2023/08/13 05:47:48;;;;;;;11.32;5.07;;;16.40;99.90;;;;;;5072067;28;20074;-75
2023/08/13 05:50:13;;;;;;;12.25;5.80;;;16.40;99.90;;;;;;5051561;28;20123;-75
2023/08/13 05:52:39;;;;;;;14.93;6.22;;;16.40;99.90;;;;;;5063772;28;20036;-75
2023/08/13 05:55:05;;;;;;;18.98;6.78;;;16.40;99.90;;;;;;5052381;28;20647;-76
2023/08/13 05:57:31;;;;;;;13.07;5.78;;;16.40;99.90;;;;;;5065507;28;20481;-75
2023/08/13 05:59:58;;;;;;;17.67;6.05;;;16.40;99.90;;;;;;5072699;28;20064;-75
2023/08/13 06:02:24;;;;;;;12.90;5.82;;;16.40;99.90;;;;;;5086834;28;20039;-75
2023/08/13 06:04:50;;;;;;;12.35;6.28;;;16.30;99.90;;;;;;5088971;28;20517;-75
2023/08/13 06:07:15;;;;;;;14.55;5.82;;;16.30;99.90;;;;;;5085247;28;20047;-75
2023/08/13 06:09:41;;;;;;;13.63;5.45;;;16.40;99.90;;;;;;5072674;28;20432;-74
2023/08/13 06:12:08;;;;;;;10.60;5.10;;;16.40;99.90;;;;;;5068364;28;20046;-74
2023/08/13 06:14:33;;;;;;;15.98;6.93;;;16.50;99.90;;;;;;5070996;28;20110;-74
2023/08/13 06:17:00;;;;;;;13.90;5.85;;;16.40;99.90;;;;;;5084923;28;20699;-76
2023/08/13 06:19:25;;;;;;;13.32;5.45;;;16.50;99.90;;;;;;5089193;28;20561;-74
2023/08/13 06:21:51;;;;;;;10.93;5.78;;;16.50;99.90;;;;;;5085587;28;20071;-76
2023/08/13 06:24:17;;;;;;;11.10;5.55;;;16.50;99.90;;;;;;5070912;28;20093;-74
2023/08/13 06:26:46;;;;;;;13.70;5.60;;;16.50;99.90;;;;;;5086151;28;20046;-75
2023/08/13 06:29:11;;;;;;;15.18;5.65;;;16.50;99.90;;;;;;5069092;28;20082;-76
2023/08/13 06:31:40;;;;;;;13.35;5.57;;;16.60;99.90;;;;;;5087603;28;20078;-74
2023/08/13 06:34:06;;;;;;;15.05;5.47;;;16.60;99.90;;;;;;5087744;28;20044;-74
2023/08/13 06:36:32;;;;;;;16.45;6.32;;;16.70;99.90;;;;;;5087047;28;20065;-75
2023/08/13 06:38:57;;;;;;;13.65;6.10;;;16.80;99.90;;;;;;5080472;28;20485;-75
2023/08/13 06:41:23;;;;;;;13.23;6.60;;;16.90;99.90;;;;;;5088228;28;20043;-75
2023/08/13 06:43:49;;;;;;;14.68;6.75;;;16.90;99.90;;;;;;5070216;28;20125;-74
2023/08/13 06:46:15;;;;;;;11.88;5.18;;;17.00;99.90;;;;;;5068605;28;20079;-74
2023/08/13 06:48:40;;;;;;;14.52;6.28;;;17.10;99.90;;;;;;5086519;28;20081;-75
2023/08/13 06:51:09;;;;;;;14.57;5.90;;;17.20;99.90;;;;;;5087215;28;20052;-75
2023/08/13 06:53:35;;;;;;;13.00;6.03;;;17.20;99.90;;;;;;5087032;28;20047;-74
2023/08/13 06:56:01;;;;;;;12.25;5.43;;;17.20;99.90;;;;;;5068914;28;20043;-75
2023/08/13 06:58:27;;;;;;;14.98;5.80;;;17.20;99.90;;;;;;5122797;27;20051;-74
2023/08/13 07:00:52;;;;;;;15.68;6.13;;;17.30;99.90;;;;;;5080853;28;20057;-75
2023/08/13 07:03:18;;;;;;;12.10;5.40;;;17.30;99.90;;;;;;5069771;28;20875;-74
2023/08/13 07:05:45;;;;;;;16.50;6.10;;;17.40;99.90;;;;;;5086069;28;20051;-75
2023/08/13 07:08:11;;;;;;;11.80;5.22;;;17.40;99.90;;;;;;5070023;28;20082;-75
2023/08/13 07:10:38;;;;;;;14.75;6.35;;;17.50;99.90;;;;;;5067916;28;20536;-74
2023/08/13 07:13:04;;;;;;;14.40;6.20;;;17.60;99.90;;;;;;5119435;27;20046;-75
2023/08/13 07:15:30;;;;;;;14.30;5.53;;;17.70;99.90;;;;;;5104225;28;20132;-74
2023/08/13 07:17:56;;;;;;;13.73;6.22;;;17.80;99.90;;;;;;5084293;28;20521;-75
2023/08/13 07:20:22;;;;;;;12.40;5.35;;;17.80;99.90;;;;;;5086837;28;20050;-75
2023/08/13 07:22:48;;;;;;;11.05;5.47;;;17.90;99.90;;;;;;5087677;28;20672;-74
2023/08/13 07:25:14;;;;;;;13.10;5.80;;;18.00;99.90;;;;;;5121009;27;20462;-74
2023/08/13 07:27:41;;;;;;;13.65;5.72;;;18.10;99.90;;;;;;5084370;28;20050;-75
2023/08/13 07:30:11;;;;;;;12.75;6.00;;;18.30;99.90;;;;;;5086999;28;20059;-75
2023/08/13 07:32:38;;;;;;;11.15;5.57;;;18.40;99.90;;;;;;5069382;28;20549;-75
2023/08/13 07:35:06;;;;;;;11.88;5.38;;;18.50;99.90;;;;;;5067705;28;20136;-74
2023/08/13 07:37:33;;;;;;;11.27;5.05;;;18.60;99.90;;;;;;5066744;28;20409;-75
2023/08/13 07:39:59;;;;;;;13.95;5.55;;;18.60;99.90;;;;;;5068391;28;20486;-75
2023/08/13 07:42:25;;;;;;;12.75;4.95;;;18.60;99.90;;;;;;5084905;28;20062;-75
2023/08/13 07:44:51;;;;;;;14.30;4.57;;;18.60;99.90;;;;;;5085423;28;20035;-75
2023/08/13 07:47:19;;;;;;;12.90;4.65;;;18.60;99.90;;;;;;5067448;28;20112;-75
2023/08/13 07:49:47;;;;;;;13.95;5.00;;;18.60;99.90;;;;;;5085993;28;20077;-75
2023/08/13 07:52:12;;;;;;;12.85;4.43;;;18.70;99.90;;;;;;5085044;28;20036;-75
2023/08/13 07:54:38;;;;;;;10.55;3.53;;;18.70;99.90;;;;;;5084293;28;20081;-75
2023/08/13 07:57:05;;;;;;;9.10;3.97;;;18.70;99.90;;;;;;5086047;28;20046;-75
2023/08/13 07:59:30;;;;;;;12.00;3.80;;;18.80;99.90;;;;;;5068613;28;20036;-75
2023/08/13 08:01:56;;;;;;;9.57;2.85;;;19.00;99.90;;;;;;5082822;28;20187;-75
2023/08/13 08:04:22;;;;;;;9.23;3.50;;;19.20;99.90;;;;;;5078392;28;20472;-75
2023/08/13 08:06:48;;;;;;;9.48;3.28;;;19.40;99.90;;;;;;5066285;28;20064;-75
2023/08/13 08:09:13;;;;;;;11.50;3.22;;;19.60;99.90;;;;;;5064029;28;20052;-75
2023/08/13 08:11:39;;;;;;;10.18;3.30;;;19.70;99.90;;;;;;5065764;28;20032;-75
2023/08/13 08:14:05;;;;;;;13.45;4.20;;;19.90;99.90;;;;;;5080414;28;20044;-75
2023/08/13 08:16:31;;;;;;;7.95;3.63;;;20.00;99.90;;;;;;5064968;28;20067;-75
2023/08/13 08:18:57;;;;;;;14.27;3.15;;;20.10;99.90;;;;;;5081633;28;20036;-75
2023/08/13 08:21:22;;;;;;;9.63;2.60;;;20.20;99.90;;;;;;5066332;28;20093;-75
2023/08/13 08:23:48;;;;;;;9.32;3.15;;;20.30;99.90;;;;;;5064430;28;20075;-75
2023/08/13 08:26:14;;;;;;;10.07;3.00;;;20.30;99.90;;;;;;5081842;28;20123;-75
2023/08/13 08:28:40;;;;;;;8.85;2.40;;;20.30;99.90;;;;;;5065337;28;20120;-75
2023/08/13 08:31:05;;;;;;;9.38;2.63;;;20.20;99.90;;;;;;5081323;28;20051;-75
2023/08/13 08:33:31;;;;;;;11.90;3.95;;;20.20;99.90;;;;;;5082329;28;20036;-75
2023/08/13 08:35:57;;;;;;;9.43;2.97;;;20.20;99.90;;;;;;5080188;28;20044;-75
2023/08/13 08:38:23;;;;;;;13.40;3.83;;;20.20;99.90;;;;;;5080941;28;20044;-75
2023/08/13 08:40:52;;;;;;;9.82;3.20;;;20.20;99.90;;;;;;5081893;28;20036;-75
2023/08/13 08:43:18;;;;;;;9.57;3.10;;;20.30;99.90;;;;;;5080491;28;20082;-75
2023/08/13 08:45:44;;;;;;;10.38;3.30;;;20.40;99.90;;;;;;5081774;28;20323;-75
2023/08/13 08:48:11;;;;;;;9.30;3.03;;;20.60;99.90;;;;;;5077649;28;20044;-75
2023/08/13 08:50:42;;;;;;;10.68;3.33;;;20.70;99.90;;;;;;5065014;28;20059;-75
2023/08/13 08:53:09;;;;;;;10.15;3.72;;;20.90;99.90;;;;;;5061732;28;20032;-75
2023/08/13 08:55:36;;;;;;;9.13;3.08;;;21.00;99.90;;;;;;5083017;28;20121;-75
2023/08/13 08:58:02;;;;;;;9.43;2.75;;;21.20;99.90;;;;;;5063179;28;20040;-75
2023/08/13 09:00:28;;;;;;;6.78;2.40;;;21.30;99.90;;;;;;5078917;28;20766;-75
2023/08/13 09:02:54;;;;;;;7.47;2.63;;;21.40;99.90;;;;;;5103558;27;20089;-75
2023/08/13 09:05:23;;;;;;;10.50;2.70;;;21.40;99.90;;;;;;5068530;28;20047;-75
2023/08/13 09:07:48;;;;;;;6.32;2.30;;;21.50;99.90;;;;;;5068898;28;20051;-74
2023/08/13 09:10:14;;;;;;;7.13;2.35;;;21.60;99.90;;;;;;5082795;28;20053;-74
2023/08/13 09:12:41;;;;;;;7.18;2.53;;;21.70;99.90;;;;;;5118449;27;20055;-74
2023/08/13 09:15:09;;;;;;;7.97;2.95;;;21.80;99.90;;;;;;5083555;28;20100;-74
2023/08/13 09:17:39;;;;;;;7.82;2.80;;;21.70;99.90;;;;;;5068025;28;20097;-74
2023/08/13 09:20:14;;;;;;;;;;;21.70;99.90;;;;;;5081572;28;20039;-74
2023/08/13 09:22:50;;;;;;;8.43;2.83;;;21.70;99.90;;;;;;5116804;27;19983;-74
2023/08/13 09:25:18;;;;;;;9.25;2.30;;;21.80;99.90;;;;;;5083179;28;20497;-75
2023/08/13 09:27:44;;;;;;;9.75;2.47;;;21.80;99.90;;;;;;5066795;28;20031;-74
2023/08/13 09:30:18;;;;;;;8.63;2.40;;;22.00;99.90;;;;;;5081896;28;20409;-74
2023/08/13 09:32:45;;;;;;;5.65;2.28;;;22.10;99.90;;;;;;5063869;28;20040;-75
2023/08/13 09:35:11;;;;;;;6.90;2.20;;;22.20;99.90;;;;;;5082899;28;21719;-74
2023/08/13 09:37:40;;;;;;;7.15;2.20;;;22.30;99.90;;;;;;5084581;28;20071;-74
2023/08/13 09:40:07;;;;;;;5.40;1.77;;;22.40;99.90;;;;;;5082399;28;20140;-74
2023/08/13 09:42:33;;;;;;;5.80;1.85;;;22.50;99.90;;;;;;5082201;28;20070;-74
2023/08/13 09:45:03;;;;;;;8.00;2.38;;;22.50;99.90;;;;;;5066066;28;20040;-75
2023/08/13 09:47:32;;;;;;;7.53;2.30;;;22.70;99.90;;;;;;5084298;28;20039;-74
2023/08/13 09:50:00;;;;;;;7.35;2.13;;;22.70;99.90;;;;;;5079320;28;20607;-74
2023/08/13 09:52:27;;;;;;;6.47;2.38;;;22.80;99.90;;;;;;5082655;28;20047;-74
2023/08/13 09:55:15;;;;;;;10.15;2.55;;;22.70;99.90;;;;;;5083696;28;20043;-74
2023/08/13 09:57:42;;;;;;;5.95;2.17;;;22.80;99.90;;;;;;5097527;28;20436;-74
2023/08/13 10:00:10;;;;;;;5.38;1.75;;;22.90;99.90;;;;;;5084199;28;20028;-74
2023/08/13 10:02:41;;;;;;;5.97;1.98;;;22.90;99.90;;;;;;5084634;28;20044;-74
2023/08/13 10:05:08;;;;;;;6.75;1.85;;;22.90;99.90;;;;;;5084315;28;20039;-75
2023/08/13 10:07:35;;;;;;;11.27;2.38;;;23.00;99.90;;;;;;5083479;28;20070;-74
2023/08/13 10:10:05;;;;;;;6.72;2.25;;;23.00;99.90;;;;;;5085464;28;20043;-74
2023/08/13 10:12:31;;;;;;;6.40;1.65;;;23.00;99.90;;;;;;5066410;28;20035;-74
2023/08/13 10:14:58;;;;;;;7.43;1.90;;;23.10;99.90;;;;;;5067900;28;20126;-74
2023/08/13 10:17:26;;;;;;;7.15;1.90;;;23.10;99.90;;;;;;5080038;28;20095;-74
2023/08/13 10:19:55;;;;;;;5.25;1.55;;;23.20;99.90;;;;;;5065433;28;20094;-75
2023/08/13 10:22:33;;;;;;;6.90;1.50;;;23.30;99.90;;;;;;5084320;28;20122;-74
2023/08/13 10:24:59;;;;;;;6.43;1.40;;;23.40;99.90;;;;;;5084921;28;20096;-74
2023/08/13 10:27:26;;;;;;;4.55;1.45;;;23.40;99.90;;;;;;5070238;28;20124;-74
2023/08/13 10:30:08;;;;;;;6.55;1.67;;;23.30;99.90;;;;;;5086005;28;20043;-74
2023/08/13 10:32:57;;;;;;;5.22;1.65;;;23.30;99.90;;;;;;5067895;28;20049;-74
2023/08/13 10:35:25;;;;;;;6.33;1.77;;;23.40;99.90;;;;;;5066814;27;20044;-73
2023/08/13 10:37:55;;;;;;;4.10;1.35;;;23.40;99.90;;;;;;5120520;27;20297;-74
2023/08/13 10:40:21;;;;;;;5.97;1.10;;;23.40;99.90;;;;;;5069561;28;20145;-75
2023/08/13 10:42:49;;;;;;;6.25;1.35;;;23.40;99.90;;;;;;5101542;28;20406;-74
2023/08/13 10:45:18;;;;;;;4.82;1.30;;;23.30;99.90;;;;;;5082368;28;20053;-74
2023/08/13 10:48:01;;;;;;;4.78;1.35;;;23.10;99.90;;;;;;5120111;27;20042;-74
2023/08/13 10:50:32;;;;;;;6.10;1.02;;;23.10;99.90;;;;;;5086509;28;20066;-74
2023/08/13 10:53:01;;;;;;;4.72;1.42;;;23.10;99.90;;;;;;5085999;28;20040;-74
2023/08/13 10:55:30;;;;;;;4.43;1.27;;;23.10;99.90;;;;;;5087455;28;20043;-74
2023/08/13 10:57:56;;;;;;;3.50;1.08;;;23.00;99.90;;;;;;5068917;28;20362;-74
2023/08/13 11:00:23;;;;;;;6.78;1.30;;;23.00;99.90;;;;;;5086195;28;20035;-74
2023/08/13 11:02:53;;;;;;;4.13;1.05;;;22.90;99.90;;;;;;5070020;28;20513;-74
2023/08/13 11:05:21;;;;;;;3.72;1.10;;;22.90;99.90;;;;;;5083407;28;20090;-74
2023/08/13 11:07:47;;;;;;;4.43;1.00;;;22.90;99.90;;;;;;5119038;27;20058;-74
2023/08/13 11:10:19;;;;;;;4.97;1.02;;;22.90;99.90;;;;;;5068558;28;20510;-75
2023/08/13 11:12:46;;;;;;;4.20;1.23;;;22.90;99.90;;;;;;5087889;28;20036;-74
2023/08/13 11:15:13;;;;;;;5.63;1.27;;;22.90;99.90;;;;;;5065511;28;20044;-74
2023/08/13 11:17:40;;;;;;;3.45;1.08;;;22.80;99.90;;;;;;5068054;28;20039;-74
2023/08/13 11:20:09;;;;;;;3.90;1.15;;;22.80;99.90;;;;;;5083226;28;20549;-74
2023/08/13 11:22:36;;;;;;;3.63;1.30;;;22.70;99.90;;;;;;5085968;28;20533;-74
2023/08/13 11:25:02;;;;;;;6.60;1.48;;;22.60;99.90;;;;;;5084504;27;20034;-74
2023/08/13 11:27:29;;;;;;;3.28;1.13;;;22.60;99.90;;;;;;5087888;28;20351;-74
2023/08/13 11:29:56;;;;;;;3.53;1.17;;;22.40;99.90;;;;;;5064683;28;20909;-74
2023/08/13 11:32:23;;;;;;;4.60;1.17;;;22.40;99.90;;;;;;5085084;28;20063;-74
2023/08/13 11:34:49;;;;;;;5.95;1.30;;;22.20;99.90;;;;;;5069042;28;20664;-74
2023/08/13 11:37:15;;;;;;;7.22;1.45;;;22.10;99.90;;;;;;5120469;27;20051;-74
2023/08/13 11:39:41;;;;;;;5.15;1.40;;;22.00;99.90;;;;;;5087462;28;20075;-74
2023/08/13 11:42:10;;;;;;;5.70;1.65;;;21.90;99.90;;;;;;5083899;28;20114;-74
2023/08/13 11:44:37;;;;;;;4.15;1.20;;;21.80;99.90;;;;;;5086540;28;20141;-74
2023/08/13 11:47:05;;;;;;;4.85;1.23;;;21.80;99.90;;;;;;5067136;28;20050;-74
2023/08/13 11:49:41;;;;;;;5.93;1.63;;;21.80;99.90;;;;;;5081560;28;20052;-74
2023/08/13 11:52:07;;;;;;;5.65;1.55;;;21.90;99.90;;;;;;5119999;27;20584;-74
2023/08/13 11:54:36;;;;;;;6.88;1.83;;;21.90;99.90;;;;;;5118348;27;20123;-74
2023/08/13 11:57:04;;;;;;;4.40;1.27;;;22.00;99.90;;;;;;5084956;28;20057;-74
2023/08/13 11:59:30;;;;;;;5.65;1.70;;;22.00;99.90;;;;;;5082555;28;20642;-74
2023/08/13 12:01:56;;;;;;;6.82;1.42;;;22.00;99.90;;;;;;5085974;28;20502;-74
2023/08/13 12:04:32;;;;;;;5.50;1.67;;;22.00;99.90;;;;;;5069213;28;20058;-74
2023/08/13 12:06:59;;;;;;;5.32;1.80;;;22.10;99.90;;;;;;5069305;28;20461;-74
2023/08/13 12:09:25;;;;;;;6.13;1.77;;;22.20;99.90;;;;;;5102415;28;20633;-74
2023/08/13 12:11:54;;;;;;;6.07;1.73;;;22.20;99.90;;;;;;5087326;28;20043;-74
2023/08/13 12:14:20;;;;;;;6.68;2.10;;;22.30;99.90;;;;;;5068176;28;20056;-74
2023/08/13 12:16:46;;;;;;;7.70;1.83;;;22.40;99.90;;;;;;5084375;28;20520;-74
2023/08/13 12:19:12;;;;;;;5.00;2.10;;;22.30;99.90;;;;;;5068146;28;20047;-74
2023/08/13 12:21:40;;;;;;;6.22;2.03;;;22.30;99.90;;;;;;5085460;28;20047;-74
2023/08/13 12:24:07;;;;;;;8.50;2.50;;;22.30;99.90;;;;;;5086117;28;20091;-74
2023/08/13 12:26:35;;;;;;;8.00;2.30;;;22.30;99.90;;;;;;5068336;28;20498;-74
2023/08/13 12:29:02;;;;;;;6.22;2.00;;;22.30;99.90;;;;;;5083595;28;20038;-74
2023/08/13 12:31:29;;;;;;;7.95;2.10;;;22.30;99.90;;;;;;5066127;28;20684;-74
2023/08/13 12:33:56;;;;;;;5.10;2.03;;;22.20;99.90;;;;;;5083816;28;20520;-74
2023/08/13 12:36:21;;;;;;;7.43;2.10;;;22.20;99.90;;;;;;5103289;28;20035;-74
2023/08/13 12:38:47;;;;;;;8.30;2.60;;;22.20;99.90;;;;;;5082508;28;20040;-74
2023/08/13 12:41:13;;;;;;;14.65;2.80;;;22.20;99.90;;;;;;5068158;28;20548;-74